createdAt,value
2019-02-07T00:05:14.192Z,5.29
2019-02-07T00:07:47.886Z,5.25
2019-02-07T00:10:39.650Z,5.30
2019-02-07T00:13:24.068Z,5.32
2019-02-07T00:16:18.731Z,5.25
2019-02-07T00:19:05.820Z,5.26
2019-02-07T00:21:40.714Z,5.16
2019-02-07T00:24:15.273Z,5.15
2019-02-07T00:26:50.463Z,5.16
2019-02-07T00:29:24.588Z,5.12
2019-02-07T00:31:58.197Z,5.17
2019-02-07T00:34:35.110Z,5.17
2019-02-07T00:37:13.110Z,5.14
2019-02-07T00:39:47.900Z,5.15
2019-02-07T00:42:38.325Z,5.21
2019-02-07T00:45:29.683Z,5.19
2019-02-07T00:48:17.936Z,5.13
2019-02-07T00:50:55.140Z,5.11
2019-02-07T00:53:28.772Z,5.12
2019-02-07T00:56:03.340Z,5.17
2019-02-07T00:58:38.270Z,5.14
2019-02-07T01:01:23.417Z,5.18
2019-02-07T01:03:56.905Z,5.18
2019-02-07T01:06:31.396Z,5.16
2019-02-07T01:09:08.139Z,5.13
2019-02-07T01:11:42.555Z,5.16
2019-02-07T01:14:17.737Z,5.12
2019-02-07T01:16:51.560Z,5.17
2019-02-07T01:19:38.945Z,5.22
2019-02-07T01:22:30.883Z,5.20
2019-02-07T01:25:19.036Z,5.20
2019-02-07T01:27:54.614Z,5.08
2019-02-07T01:30:28.441Z,5.10
2019-02-07T01:33:02.925Z,5.11
2019-02-07T01:35:36.615Z,5.07
2019-02-07T01:38:10.381Z,5.05
2019-02-07T01:40:43.988Z,5.03
2019-02-07T01:43:18.074Z,5.08
2019-02-07T01:45:51.686Z,5.02
2019-02-07T01:48:25.810Z,5.01
2019-02-07T01:51:10.624Z,5.05
2019-02-07T01:53:54.826Z,5.05
2019-02-07T01:56:28.979Z,5.00
2019-02-07T01:59:20.766Z,5.04
2019-02-07T02:02:12.539Z,4.99
2019-02-07T02:05:03.517Z,5.00
2019-02-07T02:07:38.039Z,4.99
2019-02-07T02:10:20.420Z,5.00
2019-02-07T02:12:56.626Z,4.95
2019-02-07T02:15:30.410Z,4.94
2019-02-07T02:18:04.447Z,4.90
2019-02-07T02:20:39.290Z,4.92
2019-02-07T02:23:13.388Z,4.84
2019-02-07T02:25:47.163Z,4.86
2019-02-07T02:28:34.121Z,4.87
2019-02-07T02:31:07.834Z,4.76
2019-02-07T02:33:42.740Z,4.82
2019-02-07T02:36:17.007Z,4.78
2019-02-07T02:38:50.421Z,4.80
2019-02-07T02:41:38.747Z,4.89
2019-02-07T02:44:29.552Z,4.80
2019-02-07T02:47:18.403Z,4.82
2019-02-07T02:49:52.679Z,4.79
2019-02-07T02:52:26.376Z,4.79
2019-02-07T02:55:38.211Z,4.89
2019-02-07T02:58:12.030Z,4.73
2019-02-07T03:01:23.024Z,4.80
2019-02-07T03:04:19.660Z,4.83
2019-02-07T03:07:12.234Z,4.71
2019-02-07T03:10:28.263Z,4.70
2019-02-07T03:13:38.972Z,4.68
2019-02-07T03:16:55.993Z,4.78
2019-02-07T03:19:48.820Z,4.73
2019-02-07T03:22:50.702Z,4.80
2019-02-07T03:25:43.559Z,4.75
2019-02-07T03:28:36.597Z,4.80
2019-02-07T03:31:38.298Z,4.83
2019-02-07T03:34:56.314Z,4.87
2019-02-07T03:37:58.120Z,4.76
2019-02-07T03:40:46.711Z,4.83
2019-02-07T03:43:42.474Z,4.82
2019-02-07T03:46:38.718Z,4.77
2019-02-07T03:49:31.846Z,4.79
2019-02-07T03:52:31.354Z,4.79
2019-02-07T03:55:44.371Z,4.78
2019-02-07T03:58:34.724Z,4.70
2019-02-07T04:01:30.876Z,4.76
2019-02-07T04:05:01.098Z,4.80
2019-02-07T04:07:54.425Z,4.79
2019-02-07T04:10:51.682Z,4.70
2019-02-07T04:13:50.158Z,4.70
2019-02-07T04:17:06.529Z,4.71
2019-02-07T04:20:27.715Z,4.69
2019-02-07T04:23:45.443Z,4.71
2019-02-07T04:26:36.865Z,4.69
2019-02-07T04:29:26.755Z,4.65
2019-02-07T04:32:24.154Z,4.56
2019-02-07T04:35:08.706Z,4.60
2019-02-07T04:38:33.348Z,4.61
2019-02-07T04:41:24.607Z,4.56
2019-02-07T04:44:17.595Z,4.51
2019-02-07T04:47:13.578Z,4.44
2019-02-07T04:50:28.716Z,4.49
2019-02-07T04:53:40.313Z,4.49
2019-02-07T04:56:24.742Z,4.37
2019-02-07T04:59:12.075Z,4.45
2019-02-07T05:02:16.016Z,4.38
2019-02-07T05:05:15.815Z,4.34
2019-02-07T05:08:02.728Z,4.40
2019-02-07T05:11:01.198Z,4.36
2019-02-07T05:27:21.384Z,4.33
2019-02-07T05:30:23.683Z,4.27
2019-02-07T05:33:15.472Z,4.28
2019-02-07T05:36:10.906Z,4.23
2019-02-07T05:38:59.676Z,4.29
2019-02-07T05:41:57.947Z,4.22
2019-02-07T05:45:01.066Z,4.14
2019-02-07T05:47:49.149Z,4.17
2019-02-07T05:51:07.162Z,4.03
2019-02-07T05:54:05.658Z,3.99
2019-02-07T05:57:07.395Z,3.98
2019-02-07T06:00:25.591Z,4.07
2019-02-07T06:03:24.390Z,4.03
2019-02-07T06:06:29.116Z,4.04
2019-02-07T06:09:56.837Z,4.03
2019-02-07T06:13:07.927Z,4.02
2019-02-07T06:16:35.755Z,4.08
2019-02-07T06:19:59.335Z,4.08
2019-02-07T06:23:04.835Z,3.95
2019-02-07T06:26:40.520Z,4.04
2019-02-07T06:29:51.985Z,3.96
2019-02-07T06:33:12.466Z,4.05
2019-02-07T06:36:32.950Z,4.04
2019-02-07T06:39:31.222Z,3.98
2019-02-07T06:42:29.546Z,3.92
2019-02-07T06:45:30.892Z,4.01
2019-02-07T06:48:26.016Z,3.98
2019-02-07T06:51:17.959Z,4.04
2019-02-07T06:54:09.595Z,4.02
2019-02-07T06:57:03.811Z,4.02
2019-02-07T07:00:05.473Z,4.00
2019-02-07T07:03:18.933Z,4.11
2019-02-07T07:06:14.911Z,4.09
2019-02-07T07:09:20.137Z,4.15
2019-02-07T07:12:16.264Z,4.21
2019-02-07T07:15:07.970Z,4.16
2019-02-07T07:18:06.532Z,4.24
2019-02-07T07:20:59.528Z,4.27
2019-02-07T07:26:55.118Z,4.28
2019-02-07T07:29:42.259Z,4.26
2019-02-07T07:32:33.160Z,4.28
2019-02-07T07:35:54.431Z,4.29
2019-02-07T07:38:41.616Z,4.27
2019-02-07T07:41:37.267Z,4.27
2019-02-07T07:44:27.525Z,4.28
2019-02-07T07:47:36.022Z,4.33
2019-02-07T07:50:50.828Z,4.29
2019-02-07T07:53:53.862Z,4.25
2019-02-07T07:56:50.227Z,4.22
2019-02-07T08:00:19.060Z,4.37
2019-02-07T08:03:20.966Z,4.35
2019-02-07T08:06:25.970Z,4.37
2019-02-07T08:09:47.125Z,4.39
2019-02-07T08:13:06.079Z,4.46
2019-02-07T08:16:15.985Z,4.57
2019-02-07T08:19:11.305Z,4.56
2019-02-07T08:22:05.362Z,4.60
2019-02-07T08:25:00.564Z,4.64
2019-02-07T08:28:01.805Z,4.67
2019-02-07T08:30:54.314Z,4.73
2019-02-07T08:34:09.951Z,4.80
2019-02-07T08:37:14.048Z,4.77
2019-02-07T08:39:59.607Z,4.80
2019-02-07T08:43:25.430Z,4.88
2019-02-07T08:46:17.132Z,4.84
2019-02-07T08:49:02.089Z,4.88
2019-02-07T08:52:04.132Z,4.88
2019-02-07T08:55:06.366Z,4.96
2019-02-07T08:58:14.146Z,4.92
2019-02-07T09:01:02.504Z,4.94
2019-02-07T09:03:53.834Z,5.02
2019-02-07T09:07:19.177Z,5.04
2019-02-07T09:10:25.704Z,5.01
2019-02-07T09:13:43.902Z,5.04
2019-02-07T09:16:33.801Z,5.07
2019-02-07T09:19:41.480Z,5.09
2019-02-07T09:22:59.620Z,5.15
2019-02-07T09:25:51.119Z,5.14
2019-02-07T09:29:17.717Z,5.13
2019-02-07T09:32:03.111Z,5.07
2019-02-07T09:34:58.783Z,5.12
2019-02-07T09:37:49.737Z,5.19
2019-02-07T09:40:40.594Z,5.21
2019-02-07T09:44:01.236Z,5.32
2019-02-07T09:47:13.659Z,5.34
2019-02-07T09:50:11.440Z,5.39
2019-02-07T09:53:06.439Z,5.44
2019-02-07T09:56:21.356Z,5.55
2019-02-07T09:59:39.036Z,5.61
2019-02-07T10:03:26.682Z,5.62
2019-02-07T10:06:26.992Z,5.70
2019-02-07T10:09:19.689Z,5.61
2019-02-07T10:12:10.721Z,5.62
2019-02-07T10:15:03.576Z,5.64
2019-02-07T10:17:50.855Z,5.71
2019-02-07T10:21:02.576Z,5.75
2019-02-07T10:24:21.178Z,5.87
2019-02-07T10:27:13.232Z,5.91
2019-02-07T10:30:08.799Z,5.95
2019-02-07T10:33:19.450Z,6.06
2019-02-07T10:36:26.836Z,6.13
2019-02-07T10:39:44.303Z,6.22
2019-02-07T10:42:39.964Z,6.18
2019-02-07T10:45:31.533Z,6.19
2019-02-07T10:48:24.461Z,6.24
2019-02-07T10:51:15.753Z,6.23
2019-02-07T10:54:07.807Z,6.26
2019-02-07T10:57:27.591Z,6.41
2019-02-07T11:00:39.677Z,6.42
2019-02-07T11:03:50.306Z,6.50
2019-02-07T11:07:00.051Z,6.54
2019-02-07T11:09:48.457Z,6.54
2019-02-07T11:12:37.720Z,6.61
2019-02-07T11:15:41.758Z,6.72
2019-02-07T11:18:37.518Z,6.77
2019-02-07T11:21:29.787Z,6.78
2019-02-07T11:24:22.602Z,7.04
2019-02-07T11:27:12.867Z,7.36
2019-02-07T11:30:16.887Z,7.50
2019-02-07T11:32:58.902Z,7.54
2019-02-07T11:36:01.533Z,7.71
2019-02-07T11:39:22.300Z,7.82
2019-02-07T11:42:12.866Z,7.80
2019-02-07T11:45:35.784Z,7.65
2019-02-07T11:48:24.723Z,7.53
2019-02-07T11:51:35.546Z,7.66
2019-02-07T11:54:19.000Z,7.70
2019-02-07T11:57:19.519Z,7.74
2019-02-07T12:00:25.842Z,7.81
2019-02-07T12:03:16.009Z,7.72
2019-02-07T12:06:10.443Z,7.75
2019-02-07T12:09:07.787Z,7.75
2019-02-07T12:12:30.945Z,8.02
2019-02-07T12:16:15.258Z,8.13
2019-02-07T12:19:19.960Z,8.34
2019-02-07T12:22:16.898Z,8.56
2019-02-07T12:25:27.701Z,8.63
2019-02-07T12:28:19.116Z,8.65
2019-02-07T12:31:12.398Z,8.51
2019-02-07T12:34:31.173Z,8.55
2019-02-07T12:37:55.931Z,8.69
2019-02-07T12:40:46.934Z,8.70
2019-02-07T12:43:38.386Z,8.56
2019-02-07T12:46:36.079Z,8.55
2019-02-07T12:49:29.297Z,8.61
2019-02-07T12:52:50.114Z,8.90
2019-02-07T12:55:52.755Z,9.08
2019-02-07T12:59:18.839Z,9.43
2019-02-07T13:02:14.991Z,9.36
2019-02-07T13:05:01.951Z,9.42
2019-02-07T13:07:53.326Z,9.22
2019-02-07T13:10:57.553Z,9.18
2019-02-07T13:13:47.345Z,9.19
2019-02-07T13:16:40.615Z,9.37
2019-02-07T13:19:27.449Z,9.55
2019-02-07T13:22:46.893Z,9.59
2019-02-07T13:25:38.543Z,9.60
2019-02-07T13:28:41.615Z,9.78
2019-02-07T13:32:21.384Z,9.85
2019-02-07T13:35:29.734Z,9.86
2019-02-07T13:39:05.798Z,9.76
2019-02-07T13:42:06.470Z,9.69
2019-02-07T13:45:07.362Z,9.69
2019-02-07T13:48:17.863Z,9.78
2019-02-07T13:51:30.108Z,9.68
2019-02-07T13:54:27.312Z,9.52
2019-02-07T13:57:19.131Z,9.46
2019-02-07T14:00:10.179Z,9.56
2019-02-07T14:03:05.238Z,9.56
2019-02-07T14:06:18.812Z,9.54
2019-02-07T14:09:10.418Z,9.52
2019-02-07T14:12:14.542Z,9.36
2019-02-07T14:15:48.282Z,9.30
2019-02-07T14:18:33.165Z,9.27
2019-02-07T14:21:26.599Z,9.27
2019-02-07T14:24:28.369Z,9.23
2019-02-07T14:27:24.138Z,9.14
2019-02-07T14:30:09.215Z,9.15
2019-02-07T14:33:14.507Z,9.03
2019-02-07T14:36:22.360Z,8.96
2019-02-07T14:39:21.837Z,8.93
2019-02-07T14:42:01.875Z,8.90
2019-02-07T14:45:06.177Z,8.88
2019-02-07T14:48:05.341Z,8.91
2019-02-07T15:01:25.945Z,9.20
2019-02-07T15:04:17.925Z,9.17
2019-02-07T15:06:52.004Z,9.08
2019-02-07T15:09:41.708Z,9.12
2019-02-07T15:12:30.420Z,9.05
2019-02-07T15:15:04.724Z,8.96
2019-02-07T15:17:38.685Z,8.89
2019-02-07T15:20:11.276Z,8.77
2019-02-07T15:22:46.195Z,8.71
2019-02-07T15:25:37.943Z,8.67
2019-02-07T15:28:24.661Z,8.60
2019-02-07T15:30:56.708Z,8.52
2019-02-07T15:33:30.022Z,8.52
2019-02-07T15:36:05.197Z,8.49
2019-02-07T15:38:38.814Z,8.46
2019-02-07T15:41:12.603Z,8.42
2019-02-07T15:44:04.591Z,8.44
2019-02-07T15:46:51.402Z,8.38
2019-02-07T15:49:37.075Z,8.35
2019-02-07T15:52:26.759Z,8.31
2019-02-07T15:55:12.383Z,8.26
2019-02-07T15:57:45.861Z,8.20
2019-02-07T16:00:49.793Z,8.11
2019-02-07T16:03:58.469Z,8.15
2019-02-07T16:06:32.350Z,8.08
2019-02-07T16:09:24.389Z,8.11
2019-02-07T16:12:10.123Z,8.04
2019-02-07T16:14:56.663Z,8.02
2019-02-07T16:17:30.917Z,7.90
2019-02-07T16:20:06.246Z,7.85
2019-02-07T16:22:42.457Z,7.81
2019-02-07T16:25:18.370Z,7.73
2019-02-07T16:27:52.147Z,7.73
2019-02-07T16:30:24.953Z,7.73
2019-02-07T16:32:58.404Z,7.72
2019-02-07T16:35:41.624Z,7.77
2019-02-07T16:38:21.431Z,7.81
2019-02-07T16:40:54.834Z,7.84
2019-02-07T16:43:32.567Z,7.83
2019-02-07T16:46:09.343Z,7.83
2019-02-07T16:48:42.473Z,7.82
2019-02-07T16:51:14.972Z,7.79
2019-02-07T16:54:00.037Z,7.86
2019-02-07T16:56:45.328Z,7.84
2019-02-07T16:59:36.813Z,7.81
2019-02-07T17:02:22.178Z,7.75
2019-02-07T17:05:10.679Z,7.72
2019-02-07T17:07:44.079Z,7.67
2019-02-07T17:10:20.567Z,7.61
2019-02-07T17:12:54.066Z,7.62
2019-02-07T17:15:27.272Z,7.62
2019-02-07T17:18:21.527Z,7.73
2019-02-07T17:20:55.964Z,7.75
2019-02-07T17:23:31.119Z,7.77
2019-02-07T17:45:50.247Z,7.68
2019-02-07T17:48:24.903Z,7.62
2019-02-07T17:51:09.865Z,7.69
2019-02-07T17:53:55.454Z,7.64
2019-02-07T17:56:29.333Z,7.54
2019-02-07T17:59:02.760Z,7.51
2019-02-07T18:01:36.415Z,7.54
2019-02-07T18:04:10.506Z,7.54
2019-02-07T18:06:44.065Z,7.53
2019-02-07T18:09:17.982Z,7.62
2019-02-07T18:12:09.691Z,7.63
2019-02-07T18:14:44.199Z,7.55
2019-02-07T18:17:42.179Z,7.52
2019-02-07T18:20:33.695Z,7.48
2019-02-07T18:23:06.257Z,7.46
2019-02-07T18:25:39.985Z,7.51
2019-02-07T18:28:13.696Z,7.50
2019-02-07T18:30:47.115Z,7.56
2019-02-07T18:33:20.617Z,7.61
2019-02-07T18:35:56.130Z,7.59
2019-02-07T18:38:29.902Z,7.53
2019-02-07T18:41:03.709Z,7.50
2019-02-07T18:43:39.250Z,7.53
2019-02-07T18:46:23.340Z,7.51
2019-02-07T18:48:57.945Z,7.41
2019-02-07T18:51:49.552Z,7.45
2019-02-07T18:54:34.344Z,7.45
2019-02-07T18:57:18.722Z,7.42
2019-02-07T19:00:12.385Z,7.39
2019-02-07T19:02:46.698Z,7.32
2019-02-07T19:05:22.975Z,7.28
2019-02-07T19:07:56.142Z,7.30
2019-02-07T19:10:30.084Z,7.33
2019-02-07T19:13:05.503Z,7.37
2019-02-07T19:15:41.545Z,7.38
2019-02-07T19:18:13.626Z,7.47
2019-02-07T19:20:45.917Z,7.44
2019-02-07T19:23:20.493Z,7.50
2019-02-07T19:25:52.225Z,7.51
2019-02-07T19:28:25.098Z,7.49
2019-02-07T19:30:59.288Z,7.51
2019-02-07T19:33:33.492Z,7.54
2019-02-07T19:36:08.250Z,7.49
2019-02-07T19:38:43.202Z,7.50
2019-02-07T19:41:16.701Z,7.51
2019-02-07T19:43:50.341Z,7.48
2019-02-07T19:46:22.869Z,7.47
2019-02-07T19:48:55.499Z,7.54
2019-02-07T19:51:28.236Z,7.52
2019-02-07T19:54:01.293Z,7.52
2019-02-07T19:56:34.781Z,7.49
2019-02-07T19:59:09.252Z,7.47
2019-02-07T20:01:55.211Z,7.53
2019-02-07T20:04:30.427Z,7.47
2019-02-07T20:17:49.587Z,6.64
2019-02-07T20:20:34.824Z,6.42
2019-02-07T20:23:21.272Z,6.25
2019-02-07T20:25:55.071Z,6.04
2019-02-07T20:28:28.666Z,5.91
2019-02-07T20:31:01.816Z,5.82
2019-02-07T20:33:59.963Z,5.75
2019-02-07T20:36:33.024Z,5.69
2019-02-07T20:39:09.039Z,5.67
2019-02-07T20:41:44.492Z,5.63
2019-02-07T20:44:18.978Z,5.60
2019-02-07T20:47:07.173Z,5.58
2019-02-07T20:49:42.317Z,5.49
2019-02-07T20:52:16.407Z,5.46
2019-02-07T20:54:49.960Z,5.44
2019-02-07T20:57:50.370Z,5.38
2019-02-07T21:00:32.029Z,5.38
2019-02-07T21:03:08.185Z,5.38
2019-02-07T21:05:43.275Z,5.35
2019-02-07T21:52:56.728Z,5.45
2019-02-07T21:55:31.826Z,5.46
2019-02-07T21:58:05.154Z,5.45
2019-02-07T22:00:41.201Z,5.49
2019-02-07T22:03:15.313Z,5.49
2019-02-07T22:05:48.757Z,5.51
2019-02-07T22:08:33.286Z,5.58
2019-02-07T22:11:09.294Z,5.58
2019-02-07T22:13:48.980Z,5.62
2019-02-07T22:16:24.536Z,5.64
2019-02-07T22:19:03.390Z,5.64
2019-02-07T22:21:38.077Z,5.68
2019-02-07T22:24:19.144Z,5.67
2019-02-07T22:26:58.473Z,5.70
2019-02-07T22:29:33.107Z,5.72
2019-02-07T22:32:07.471Z,5.71
2019-02-07T22:34:40.767Z,5.73
2019-02-07T22:37:18.085Z,5.73
2019-02-07T22:39:57.306Z,5.74
2019-02-07T22:42:30.724Z,5.76
2019-02-07T22:45:04.861Z,5.76
2019-02-07T22:47:43.068Z,5.76
2019-02-07T22:50:21.763Z,5.76
2019-02-07T22:52:56.997Z,5.74
2019-02-07T22:55:30.555Z,5.67
2019-02-07T22:58:04.577Z,5.59
2019-02-07T23:01:19.816Z,5.62
2019-02-07T23:03:58.258Z,5.62
2019-02-07T23:06:30.656Z,5.60
